sensor_id;sensor_type;location;lat;lon;timestamp;pressure;altitude;pressure_sealevel;temperature;humidity
71109;BME280;59614;51.012;-1.648;2023-05-01T00:00:12;100960.97;;;12.18;98.66
71109;BME280;59614;51.012;-1.648;2023-05-01T00:02:38;100967.84;;;12.31;98.15
71109;BME280;59614;51.012;-1.648;2023-05-01T00:05:04;100966.88;;;12.37;97.51
71109;BME280;59614;51.012;-1.648;2023-05-01T00:07:30;100975.75;;;12.33;97.19
71109;BME280;59614;51.012;-1.648;2023-05-01T00:09:58;100959.91;;;12.30;97.53
71109;BME280;59614;51.012;-1.648;2023-05-01T00:12:24;100962.66;;;12.24;97.58
71109;BME280;59614;51.012;-1.648;2023-05-01T00:14:50;100962.72;;;12.17;98.53
71109;BME280;59614;51.012;-1.648;2023-05-01T00:17:16;100962.78;;;12.14;99.08
71109;BME280;59614;51.012;-1.648;2023-05-01T00:19:41;100960.84;;;12.26;98.66
71109;BME280;59614;51.012;-1.648;2023-05-01T00:22:07;100960.84;;;12.26;98.48
71109;BME280;59614;51.012;-1.648;2023-05-01T00:24:32;100960.94;;;12.21;98.16
71109;BME280;59614;51.012;-1.648;2023-05-01T00:26:58;100959.03;;;12.28;98.03
71109;BME280;59614;51.012;-1.648;2023-05-01T00:29:23;100952.84;;;12.29;97.63
71109;BME280;59614;51.012;-1.648;2023-05-01T00:31:49;100944.91;;;12.30;97.60
71109;BME280;59614;51.012;-1.648;2023-05-01T00:34:14;100943.22;;;12.25;97.51
71109;BME280;59614;51.012;-1.648;2023-05-01T00:36:40;100948.53;;;12.23;97.55
71109;BME280;59614;51.012;-1.648;2023-05-01T00:39:06;100938.06;;;12.15;96.80
71109;BME280;59614;51.012;-1.648;2023-05-01T00:41:35;100946.13;;;12.08;96.74
71109;BME280;59614;51.012;-1.648;2023-05-01T00:44:00;100941.81;;;11.97;97.67
71109;BME280;59614;51.012;-1.648;2023-05-01T00:46:27;100929.50;;;11.95;98.06
71109;BME280;59614;51.012;-1.648;2023-05-01T00:48:54;100929.56;;;11.92;97.92
71109;BME280;59614;51.012;-1.648;2023-05-01T00:51:20;100925.22;;;11.84;97.50
71109;BME280;59614;51.012;-1.648;2023-05-01T00:53:47;100921.72;;;11.82;97.92
71109;BME280;59614;51.012;-1.648;2023-05-01T00:56:14;100917.47;;;11.72;97.87
71109;BME280;59614;51.012;-1.648;2023-05-01T00:58:39;100918.41;;;11.68;97.79
71109;BME280;59614;51.012;-1.648;2023-05-01T01:01:05;100922.84;;;11.66;97.98
71109;BME280;59614;51.012;-1.648;2023-05-01T01:03:33;100918.63;;;11.49;97.39
71109;BME280;59614;51.012;-1.648;2023-05-01T01:06:08;100914.28;;;11.43;98.13
71109;BME280;59614;51.012;-1.648;2023-05-01T01:08:42;100916.16;;;11.37;98.33
71109;BME280;59614;51.012;-1.648;2023-05-01T01:11:20;100922.50;;;11.20;98.05
71109;BME280;59614;51.012;-1.648;2023-05-01T01:13:59;100913.78;;;11.10;97.72
71109;BME280;59614;51.012;-1.648;2023-05-01T01:21:47;100903.78;;;11.39;99.35
71109;BME280;59614;51.012;-1.648;2023-05-01T01:36:11;100888.22;;;11.83;99.10
71109;BME280;59614;51.012;-1.648;2023-05-01T01:38:44;100881.53;;;11.58;100.00
71109;BME280;59614;51.012;-1.648;2023-05-01T01:41:23;100890.25;;;11.64;100.00
71109;BME280;59614;51.012;-1.648;2023-05-01T01:46:47;100885.84;;;11.63;100.00
71109;BME280;59614;51.012;-1.648;2023-05-01T01:49:20;100884.13;;;11.60;99.70
71109;BME280;59614;51.012;-1.648;2023-05-01T01:51:47;100886.75;;;11.62;98.78
71109;BME280;59614;51.012;-1.648;2023-05-01T01:54:14;100874.53;;;11.54;98.09
71109;BME280;59614;51.012;-1.648;2023-05-01T01:56:43;100861.56;;;11.34;98.64
71109;BME280;59614;51.012;-1.648;2023-05-01T01:59:10;100867.69;;;11.36;97.53
71109;BME280;59614;51.012;-1.648;2023-05-01T02:01:38;100866.03;;;11.27;97.12
71109;BME280;59614;51.012;-1.648;2023-05-01T02:04:04;100866.97;;;11.22;97.08
71109;BME280;59614;51.012;-1.648;2023-05-01T02:06:32;100860.16;;;11.04;96.96
71109;BME280;59614;51.012;-1.648;2023-05-01T02:09:00;100865.53;;;10.96;96.91
71109;BME280;59614;51.012;-1.648;2023-05-01T02:11:29;100856.00;;;10.81;96.12
71109;BME280;59614;51.012;-1.648;2023-05-01T02:13:56;100857.81;;;10.76;95.81
71109;BME280;59614;51.012;-1.648;2023-05-01T02:16:21;100855.28;;;10.65;95.79
71109;BME280;59614;51.012;-1.648;2023-05-01T02:18:50;100860.66;;;10.56;95.32
71109;BME280;59614;51.012;-1.648;2023-05-01T02:21:17;100851.00;;;10.53;95.19
71109;BME280;59614;51.012;-1.648;2023-05-01T02:23:43;100852.84;;;10.45;94.86
71109;BME280;59614;51.012;-1.648;2023-05-01T02:26:12;100847.59;;;10.39;95.56
71109;BME280;59614;51.012;-1.648;2023-05-01T02:28:41;100847.63;;;10.34;94.82
71109;BME280;59614;51.012;-1.648;2023-05-01T02:31:06;100852.00;;;10.40;96.23
71109;BME280;59614;51.012;-1.648;2023-05-01T02:33:32;100843.19;;;10.41;95.96
71109;BME280;59614;51.012;-1.648;2023-05-01T02:35:57;100848.56;;;10.30;96.25
71109;BME280;59614;51.012;-1.648;2023-05-01T02:38:23;100848.56;;;10.25;96.91
71109;BME280;59614;51.012;-1.648;2023-05-01T02:40:50;100849.47;;;10.24;97.14
71109;BME280;59614;51.012;-1.648;2023-05-01T02:43:17;100846.81;;;10.26;97.71
71109;BME280;59614;51.012;-1.648;2023-05-01T02:45:45;100853.81;;;10.28;97.84
71109;BME280;59614;51.012;-1.648;2023-05-01T02:48:14;100846.84;;;10.23;97.43
71109;BME280;59614;51.012;-1.648;2023-05-01T02:50:43;100840.75;;;10.17;96.62
71109;BME280;59614;51.012;-1.648;2023-05-01T02:53:09;100841.63;;;10.15;96.64
71109;BME280;59614;51.012;-1.648;2023-05-01T02:55:36;100841.69;;;10.07;95.73
71109;BME280;59614;51.012;-1.648;2023-05-01T02:58:02;100840.88;;;10.00;95.77
71109;BME280;59614;51.012;-1.648;2023-05-01T03:00:27;100841.75;;;9.98;95.35
71109;BME280;59614;51.012;-1.648;2023-05-01T03:02:52;100833.91;;;9.85;95.42
71109;BME280;59614;51.012;-1.648;2023-05-01T03:05:18;100833.19;;;9.63;95.29
71109;BME280;59614;51.012;-1.648;2023-05-01T03:07:44;100834.97;;;9.58;95.77
71109;BME280;59614;51.012;-1.648;2023-05-01T03:10:10;100834.94;;;9.63;95.83
71109;BME280;59614;51.012;-1.648;2023-05-01T03:12:36;100838.47;;;9.62;95.31
71109;BME280;59614;51.012;-1.648;2023-05-01T03:15:01;100835.84;;;9.57;94.80
71109;BME280;59614;51.012;-1.648;2023-05-01T03:17:27;100830.63;;;9.51;95.06
71109;BME280;59614;51.012;-1.648;2023-05-01T03:19:53;100836.78;;;9.47;94.87
71109;BME280;59614;51.012;-1.648;2023-05-01T03:22:18;100831.53;;;9.51;95.27
71109;BME280;59614;51.012;-1.648;2023-05-01T03:24:44;100834.13;;;9.56;96.10
71109;BME280;59614;51.012;-1.648;2023-05-01T03:27:11;100831.47;;;9.57;96.22
71109;BME280;59614;51.012;-1.648;2023-05-01T03:29:36;100835.84;;;9.57;96.18
71109;BME280;59614;51.012;-1.648;2023-05-01T03:32:02;100835.94;;;9.41;95.10
71109;BME280;59614;51.012;-1.648;2023-05-01T03:34:28;100836.88;;;9.34;95.20
71109;BME280;59614;51.012;-1.648;2023-05-01T03:36:54;100838.59;;;9.38;95.90
71109;BME280;59614;51.012;-1.648;2023-05-01T03:39:19;100838.53;;;9.48;95.90
71109;BME280;59614;51.012;-1.648;2023-05-01T03:41:44;100839.41;;;9.50;95.82
71109;BME280;59614;51.012;-1.648;2023-05-01T03:44:10;100843.78;;;9.54;96.53
71109;BME280;59614;51.012;-1.648;2023-05-01T03:46:36;100832.31;;;9.64;97.42
71109;BME280;59614;51.012;-1.648;2023-05-01T03:49:01;100837.44;;;9.83;96.89
71109;BME280;59614;51.012;-1.648;2023-05-01T03:51:27;100842.75;;;9.84;97.40
71109;BME280;59614;51.012;-1.648;2023-05-01T03:53:52;100839.34;;;9.62;100.00
71109;BME280;59614;51.012;-1.648;2023-05-01T03:56:20;100840.94;;;9.88;100.00
71109;BME280;59614;51.012;-1.648;2023-05-01T03:58:46;100848.75;;;10.02;100.00
71109;BME280;59614;51.012;-1.648;2023-05-01T04:01:11;100840.81;;;10.05;100.00
71109;BME280;59614;51.012;-1.648;2023-05-01T04:03:37;100849.66;;;9.96;100.00
71109;BME280;59614;51.012;-1.648;2023-05-01T04:06:02;100847.78;;;10.12;100.00
71109;BME280;59614;51.012;-1.648;2023-05-01T04:08:28;100834.44;;;10.32;99.72
71109;BME280;59614;51.012;-1.648;2023-05-01T04:10:53;100837.84;;;10.48;98.72
71109;BME280;59614;51.012;-1.648;2023-05-01T04:13:19;100829.06;;;10.49;98.83
71109;BME280;59614;51.012;-1.648;2023-05-01T04:15:44;100831.63;;;10.57;98.18
71109;BME280;59614;51.012;-1.648;2023-05-01T04:18:10;100838.53;;;10.66;98.05
71109;BME280;59614;51.012;-1.648;2023-05-01T04:20:36;100835.16;;;10.56;97.46
71109;BME280;59614;51.012;-1.648;2023-05-01T04:23:01;100834.16;;;10.65;97.98
71109;BME280;59614;51.012;-1.648;2023-05-01T04:25:27;100840.31;;;10.69;97.59
71109;BME280;59614;51.012;-1.648;2023-05-01T04:27:52;100828.81;;;10.70;97.83
71109;BME280;59614;51.012;-1.648;2023-05-01T04:30:18;100817.56;;;10.52;98.24
71109;BME280;59614;51.012;-1.648;2023-05-01T04:32:43;100825.28;;;10.71;98.45
71109;BME280;59614;51.012;-1.648;2023-05-01T04:35:09;100819.03;;;10.81;97.99
71109;BME280;59614;51.012;-1.648;2023-05-01T04:37:36;100819.25;;;10.59;98.71
71109;BME280;59614;51.012;-1.648;2023-05-01T04:40:01;100816.34;;;10.84;98.46
71109;BME280;59614;51.012;-1.648;2023-05-01T04:42:30;100815.47;;;10.85;97.77
71109;BME280;59614;51.012;-1.648;2023-05-01T04:44:56;100808.41;;;10.87;98.05
71109;BME280;59614;51.012;-1.648;2023-05-01T04:47:22;100815.41;;;10.91;97.40
71109;BME280;59614;51.012;-1.648;2023-05-01T04:49:47;100824.25;;;10.87;98.38
71109;BME280;59614;51.012;-1.648;2023-05-01T04:52:13;100817.09;;;10.95;98.07
71109;BME280;59614;51.012;-1.648;2023-05-01T04:54:38;100810.88;;;11.01;97.85
71109;BME280;59614;51.012;-1.648;2023-05-01T04:57:04;100812.69;;;10.97;97.49
71109;BME280;59614;51.012;-1.648;2023-05-01T04:59:29;100812.66;;;11.01;98.11
71109;BME280;59614;51.012;-1.648;2023-05-01T05:01:54;100813.44;;;11.09;97.58
71109;BME280;59614;51.012;-1.648;2023-05-01T05:04:20;100814.34;;;11.06;97.71
71109;BME280;59614;51.012;-1.648;2023-05-01T05:06:45;100816.09;;;11.07;97.81
71109;BME280;59614;51.012;-1.648;2023-05-01T05:09:11;100812.50;;;11.11;96.86
71109;BME280;59614;51.012;-1.648;2023-05-01T05:11:37;100809.06;;;11.05;96.31
71109;BME280;59614;51.012;-1.648;2023-05-01T05:14:02;100808.31;;;10.96;96.52
71109;BME280;59614;51.012;-1.648;2023-05-01T05:16:28;100811.78;;;11.02;96.95
71109;BME280;59614;51.012;-1.648;2023-05-01T05:18:56;100815.16;;;11.11;97.30
71109;BME280;59614;51.012;-1.648;2023-05-01T05:21:22;100817.84;;;11.07;97.56
71109;BME280;59614;51.012;-1.648;2023-05-01T05:23:47;100810.59;;;11.24;97.43
71109;BME280;59614;51.012;-1.648;2023-05-01T05:26:13;100812.16;;;11.38;97.04
71109;BME280;59614;51.012;-1.648;2023-05-01T05:28:39;100813.97;;;11.34;96.59
71109;BME280;59614;51.012;-1.648;2023-05-01T05:31:05;100823.56;;;11.43;96.93
71109;BME280;59614;51.012;-1.648;2023-05-01T05:33:30;100825.16;;;11.56;96.83
71109;BME280;59614;51.012;-1.648;2023-05-01T05:35:57;100820.78;;;11.52;95.66
71109;BME280;59614;51.012;-1.648;2023-05-01T05:38:23;100824.91;;;11.72;95.36
71109;BME280;59614;51.012;-1.648;2023-05-01T05:40:49;100824.97;;;11.69;95.53
71109;BME280;59614;51.012;-1.648;2023-05-01T05:43:14;100822.94;;;11.86;95.24
71109;BME280;59614;51.012;-1.648;2023-05-01T05:45:40;100830.56;;;12.10;94.55
71109;BME280;59614;51.012;-1.648;2023-05-01T05:48:05;100826.16;;;12.07;94.19
71109;BME280;59614;51.012;-1.648;2023-05-01T05:50:31;100832.13;;;12.22;94.36
71109;BME280;59614;51.012;-1.648;2023-05-01T05:52:56;100832.56;;;12.47;93.52
71109;BME280;59614;51.012;-1.648;2023-05-01T05:55:22;100827.81;;;12.66;92.27
71109;BME280;59614;51.012;-1.648;2023-05-01T05:57:47;100830.94;;;12.88;91.49
71109;BME280;59614;51.012;-1.648;2023-05-01T06:00:13;100830.06;;;12.88;90.74
71109;BME280;59614;51.012;-1.648;2023-05-01T06:02:39;100830.06;;;12.88;90.32
71109;BME280;59614;51.012;-1.648;2023-05-01T06:05:05;100829.75;;;12.56;90.85
71109;BME280;59614;51.012;-1.648;2023-05-01T06:07:30;100830.81;;;12.46;92.47
71109;BME280;59614;51.012;-1.648;2023-05-01T06:09:56;100824.63;;;12.47;91.49
71109;BME280;59614;51.012;-1.648;2023-05-01T06:12:28;100835.13;;;12.51;91.21
71109;BME280;59614;51.012;-1.648;2023-05-01T06:14:56;100832.75;;;12.36;91.04
71109;BME280;59614;51.012;-1.648;2023-05-01T06:17:22;100822.22;;;12.33;91.68
71109;BME280;59614;51.012;-1.648;2023-05-01T06:19:48;100824.88;;;12.33;92.66
71109;BME280;59614;51.012;-1.648;2023-05-01T06:22:13;100829.75;;;12.56;91.82
71109;BME280;59614;51.012;-1.648;2023-05-01T06:24:38;100818.75;;;12.29;92.80
71109;BME280;59614;51.012;-1.648;2023-05-01T06:27:04;100820.31;;;12.41;92.32
71109;BME280;59614;51.012;-1.648;2023-05-01T06:29:30;100829.25;;;12.34;92.96
71109;BME280;59614;51.012;-1.648;2023-05-01T06:31:55;100830.22;;;12.30;93.20
71109;BME280;59614;51.012;-1.648;2023-05-01T06:34:21;100838.56;;;12.57;92.28
71109;BME280;59614;51.012;-1.648;2023-05-01T06:36:46;100841.81;;;12.73;91.46
71109;BME280;59614;51.012;-1.648;2023-05-01T06:39:12;100843.06;;;12.53;91.40
71109;BME280;59614;51.012;-1.648;2023-05-01T06:41:37;100851.41;;;12.78;91.23
71109;BME280;59614;51.012;-1.648;2023-05-01T06:44:03;100844.94;;;12.93;90.46
71109;BME280;59614;51.012;-1.648;2023-05-01T06:46:29;100858.34;;;12.86;90.54
71109;BME280;59614;51.012;-1.648;2023-05-01T06:48:55;100854.31;;;13.11;90.10
71109;BME280;59614;51.012;-1.648;2023-05-01T06:51:20;100853.00;;;12.89;90.43
71109;BME280;59614;51.012;-1.648;2023-05-01T06:53:46;100860.56;;;13.09;90.04
71109;BME280;59614;51.012;-1.648;2023-05-01T06:56:11;100865.16;;;12.99;89.34
71109;BME280;59614;51.012;-1.648;2023-05-01T06:58:36;100863.13;;;13.12;89.49
71109;BME280;59614;51.012;-1.648;2023-05-01T07:01:02;100855.03;;;13.20;89.12
71109;BME280;59614;51.012;-1.648;2023-05-01T07:03:28;100853.88;;;13.33;88.95
71109;BME280;59614;51.012;-1.648;2023-05-01T07:05:53;100852.28;;;13.24;88.69
71109;BME280;59614;51.012;-1.648;2023-05-01T07:08:19;100858.47;;;13.25;89.16
71109;BME280;59614;51.012;-1.648;2023-05-01T07:10:45;100862.09;;;13.63;87.56
71109;BME280;59614;51.012;-1.648;2023-05-01T07:13:11;100860.38;;;13.18;89.23
71109;BME280;59614;51.012;-1.648;2023-05-01T07:15:36;100864.66;;;13.24;89.46
71109;BME280;59614;51.012;-1.648;2023-05-01T07:18:02;100862.50;;;13.44;88.20
71109;BME280;59614;51.012;-1.648;2023-05-01T07:20:30;100860.50;;;13.56;88.50
71109;BME280;59614;51.012;-1.648;2023-05-01T07:22:56;100867.72;;;13.49;88.67
71109;BME280;59614;51.012;-1.648;2023-05-01T07:25:21;100876.34;;;13.59;87.87
71109;BME280;59614;51.012;-1.648;2023-05-01T07:27:47;100868.84;;;13.78;87.62
71109;BME280;59614;51.012;-1.648;2023-05-01T07:30:12;100873.78;;;13.95;86.82
71109;BME280;59614;51.012;-1.648;2023-05-01T07:32:38;100880.13;;;13.88;86.58
71109;BME280;59614;51.012;-1.648;2023-05-01T07:35:03;100872.09;;;13.91;86.20
71109;BME280;59614;51.012;-1.648;2023-05-01T07:37:29;100875.41;;;14.37;84.83
71109;BME280;59614;51.012;-1.648;2023-05-01T07:39:55;100877.69;;;14.16;85.20
71109;BME280;59614;51.012;-1.648;2023-05-01T07:42:22;100886.00;;;14.02;85.18
71109;BME280;59614;51.012;-1.648;2023-05-01T07:44:49;100889.13;;;13.81;87.10
71109;BME280;59614;51.012;-1.648;2023-05-01T07:47:15;100889.97;;;13.83;86.69
71109;BME280;59614;51.012;-1.648;2023-05-01T07:49:41;100891.06;;;14.12;84.93
71109;BME280;59614;51.012;-1.648;2023-05-01T07:52:06;100895.56;;;14.46;84.80
71109;BME280;59614;51.012;-1.648;2023-05-01T07:54:32;100893.50;;;14.57;84.47
71109;BME280;59614;51.012;-1.648;2023-05-01T07:56:58;100890.66;;;14.65;84.32
71109;BME280;59614;51.012;-1.648;2023-05-01T07:59:23;100881.84;;;14.63;83.06
71109;BME280;59614;51.012;-1.648;2023-05-01T08:01:49;100878.03;;;14.75;83.79
71109;BME280;59614;51.012;-1.648;2023-05-01T08:04:14;100881.56;;;14.39;83.95
71109;BME280;59614;51.012;-1.648;2023-05-01T08:06:41;100882.03;;;14.19;84.70
71109;BME280;59614;51.012;-1.648;2023-05-01T08:09:06;100886.50;;;14.53;82.76
71109;BME280;59614;51.012;-1.648;2023-05-01T08:11:33;100883.50;;;14.69;82.80
71109;BME280;59614;51.012;-1.648;2023-05-01T08:13:58;100880.31;;;15.20;81.88
71109;BME280;59614;51.012;-1.648;2023-05-01T08:16:23;100887.25;;;15.26;80.49
71109;BME280;59614;51.012;-1.648;2023-05-01T08:18:49;100879.81;;;15.39;80.41
71109;BME280;59614;51.012;-1.648;2023-05-01T08:21:14;100885.63;;;15.20;80.94
71109;BME280;59614;51.012;-1.648;2023-05-01T08:23:40;100889.47;;;14.78;82.44
71109;BME280;59614;51.012;-1.648;2023-05-01T08:26:05;100889.72;;;15.02;82.67
71109;BME280;59614;51.012;-1.648;2023-05-01T08:28:33;100898.41;;;14.74;82.16
71109;BME280;59614;51.012;-1.648;2023-05-01T08:30:59;100888.31;;;15.20;81.18
71109;BME280;59614;51.012;-1.648;2023-05-01T08:33:25;100887.44;;;15.51;80.48
71109;BME280;59614;51.012;-1.648;2023-05-01T08:35:51;100894.16;;;15.33;79.34
71109;BME280;59614;51.012;-1.648;2023-05-01T08:38:17;100897.00;;;14.94;80.83
71109;BME280;59614;51.012;-1.648;2023-05-01T08:40:46;100882.94;;;15.53;80.20
71109;BME280;59614;51.012;-1.648;2023-05-01T08:43:15;100890.44;;;15.69;78.38
71109;BME280;59614;51.012;-1.648;2023-05-01T08:45:41;100886.78;;;15.73;77.51
71109;BME280;59614;51.012;-1.648;2023-05-01T08:48:07;100888.31;;;15.82;78.19
71109;BME280;59614;51.012;-1.648;2023-05-01T08:50:35;100889.88;;;15.89;76.98
71109;BME280;59614;51.012;-1.648;2023-05-01T08:53:05;100893.16;;;15.67;77.76
71109;BME280;59614;51.012;-1.648;2023-05-01T08:55:31;100901.16;;;15.36;79.42
71109;BME280;59614;51.012;-1.648;2023-05-01T08:57:58;100900.53;;;15.27;77.71
71109;BME280;59614;51.012;-1.648;2023-05-01T09:00:24;100900.97;;;15.43;78.78
71109;BME280;59614;51.012;-1.648;2023-05-01T09:02:50;100899.81;;;15.52;78.84
71109;BME280;59614;51.012;-1.648;2023-05-01T09:05:20;100907.03;;;15.77;74.83
71109;BME280;59614;51.012;-1.648;2023-05-01T09:07:46;100911.78;;;15.97;76.24
71109;BME280;59614;51.012;-1.648;2023-05-01T09:10:14;100904.34;;;16.09;76.30
71109;BME280;59614;51.012;-1.648;2023-05-01T09:12:41;100907.19;;;16.58;74.27
71109;BME280;59614;51.012;-1.648;2023-05-01T09:15:10;100904.31;;;17.16;73.55
71109;BME280;59614;51.012;-1.648;2023-05-01T09:17:36;100898.94;;;17.18;72.07
71109;BME280;59614;51.012;-1.648;2023-05-01T09:20:03;100910.84;;;16.80;72.80
71109;BME280;59614;51.012;-1.648;2023-05-01T09:22:32;100905.63;;;17.04;72.42
71109;BME280;59614;51.012;-1.648;2023-05-01T09:24:59;100907.41;;;17.29;72.14
71109;BME280;59614;51.012;-1.648;2023-05-01T09:27:26;100908.03;;;17.12;70.75
71109;BME280;59614;51.012;-1.648;2023-05-01T09:29:51;100907.38;;;17.05;70.81
71109;BME280;59614;51.012;-1.648;2023-05-01T09:32:21;100908.22;;;17.06;70.80
71109;BME280;59614;51.012;-1.648;2023-05-01T09:34:49;100909.44;;;17.22;71.15
71109;BME280;59614;51.012;-1.648;2023-05-01T09:37:28;100910.63;;;17.13;68.66
71109;BME280;59614;51.012;-1.648;2023-05-01T09:40:08;100906.88;;;17.43;69.16
71109;BME280;59614;51.012;-1.648;2023-05-01T09:42:51;100908.66;;;17.19;67.99
71109;BME280;59614;51.012;-1.648;2023-05-01T09:45:17;100908.25;;;17.29;68.51
71109;BME280;59614;51.012;-1.648;2023-05-01T09:47:44;100914.28;;;17.11;69.11
71109;BME280;59614;51.012;-1.648;2023-05-01T09:50:11;100911.75;;;17.32;70.21
71109;BME280;59614;51.012;-1.648;2023-05-01T09:52:52;100913.72;;;17.01;70.33
71109;BME280;59614;51.012;-1.648;2023-05-01T09:55:18;100923.38;;;16.78;70.60
71109;BME280;59614;51.012;-1.648;2023-05-01T09:57:44;100918.75;;;17.10;70.92
71109;BME280;59614;51.012;-1.648;2023-05-01T10:00:14;100908.88;;;18.30;67.80
71109;BME280;59614;51.012;-1.648;2023-05-01T10:02:43;100917.09;;;19.11;65.31
71109;BME280;59614;51.012;-1.648;2023-05-01T10:05:10;100921.41;;;18.50;65.63
71109;BME280;59614;51.012;-1.648;2023-05-01T10:07:36;100917.13;;;18.01;72.76
71109;BME280;59614;51.012;-1.648;2023-05-01T10:10:34;100914.72;;;17.48;75.81
71109;BME280;59614;51.012;-1.648;2023-05-01T10:13:18;100917.38;;;16.98;76.85
71109;BME280;59614;51.012;-1.648;2023-05-01T10:15:44;100913.91;;;17.22;75.63
71109;BME280;59614;51.012;-1.648;2023-05-01T10:18:13;100910.88;;;18.02;74.61
71109;BME280;59614;51.012;-1.648;2023-05-01T10:20:39;100922.94;;;18.78;73.17
71109;BME280;59614;51.012;-1.648;2023-05-01T10:23:05;100922.09;;;19.58;69.72
71109;BME280;59614;51.012;-1.648;2023-05-01T10:25:31;100922.22;;;19.55;67.82
71109;BME280;59614;51.012;-1.648;2023-05-01T10:27:58;100921.84;;;18.61;70.95
71109;BME280;59614;51.012;-1.648;2023-05-01T10:30:28;100914.34;;;17.81;72.08
71109;BME280;59614;51.012;-1.648;2023-05-01T10:32:54;100921.50;;;17.33;76.12
71109;BME280;59614;51.012;-1.648;2023-05-01T10:35:25;100928.03;;;17.24;75.61
71109;BME280;59614;51.012;-1.648;2023-05-01T10:38:05;100925.13;;;17.06;72.54
71109;BME280;59614;51.012;-1.648;2023-05-01T10:45:50;100927.16;;;18.41;68.89
71109;BME280;59614;51.012;-1.648;2023-05-01T10:51:11;100921.63;;;19.09;64.38
71109;BME280;59614;51.012;-1.648;2023-05-01T10:53:39;100925.75;;;19.16;62.47
71109;BME280;59614;51.012;-1.648;2023-05-01T10:58:58;100918.06;;;20.07;60.21
71109;BME280;59614;51.012;-1.648;2023-05-01T11:01:34;100921.06;;;19.42;62.86
71109;BME280;59614;51.012;-1.648;2023-05-01T11:04:04;100921.91;;;19.23;62.32
71109;BME280;59614;51.012;-1.648;2023-05-01T11:06:31;100925.47;;;18.81;63.46
71109;BME280;59614;51.012;-1.648;2023-05-01T11:08:58;100926.16;;;18.43;60.49
71109;BME280;59614;51.012;-1.648;2023-05-01T11:14:02;100930.97;;;18.78;59.75
71109;BME280;59614;51.012;-1.648;2023-05-01T11:19:43;100924.91;;;18.95;58.57
71109;BME280;59614;51.012;-1.648;2023-05-01T11:21:58;100919.75;;;19.32;60.05
71109;BME280;59614;51.012;-1.648;2023-05-01T11:24:31;100925.97;;;19.11;56.67
71109;BME280;59614;51.012;-1.648;2023-05-01T11:26:57;100928.91;;;18.85;58.26
71109;BME280;59614;51.012;-1.648;2023-05-01T11:29:30;100916.84;;;19.36;57.38
71109;BME280;59614;51.012;-1.648;2023-05-01T11:31:58;100915.88;;;19.77;54.80
71109;BME280;59614;51.012;-1.648;2023-05-01T11:34:23;100921.72;;;19.87;53.02
71109;BME280;59614;51.012;-1.648;2023-05-01T11:36:51;100917.03;;;20.64;54.47
71109;BME280;59614;51.012;-1.648;2023-05-01T11:39:17;100924.16;;;19.92;52.89
71109;BME280;59614;51.012;-1.648;2023-05-01T11:41:43;100929.03;;;19.63;52.94
71109;BME280;59614;51.012;-1.648;2023-05-01T11:44:15;100914.56;;;20.05;53.38
71109;BME280;59614;51.012;-1.648;2023-05-01T11:46:40;100922.13;;;20.33;53.76
71109;BME280;59614;51.012;-1.648;2023-05-01T11:49:06;100931.25;;;19.34;55.79
71109;BME280;59614;51.012;-1.648;2023-05-01T11:51:32;100918.41;;;19.80;58.00
71109;BME280;59614;51.012;-1.648;2023-05-01T11:54:02;100923.28;;;20.10;55.49
71109;BME280;59614;51.012;-1.648;2023-05-01T11:56:29;100918.63;;;19.75;55.94
71109;BME280;59614;51.012;-1.648;2023-05-01T11:58:57;100927.19;;;20.03;55.40
71109;BME280;59614;51.012;-1.648;2023-05-01T12:01:33;100922.84;;;22.24;50.85
71109;BME280;59614;51.012;-1.648;2023-05-01T12:03:59;100920.84;;;22.74;48.50
71109;BME280;59614;51.012;-1.648;2023-05-01T12:06:44;100920.25;;;22.69;49.46
71109;BME280;59614;51.012;-1.648;2023-05-01T12:09:23;100915.56;;;23.61;46.40
71109;BME280;59614;51.012;-1.648;2023-05-01T12:11:51;100921.38;;;22.18;46.17
71109;BME280;59614;51.012;-1.648;2023-05-01T12:14:18;100927.97;;;21.13;50.18
71109;BME280;59614;51.012;-1.648;2023-05-01T12:16:44;100931.91;;;21.06;51.63
71109;BME280;59614;51.012;-1.648;2023-05-01T12:19:12;100932.59;;;21.27;52.02
71109;BME280;59614;51.012;-1.648;2023-05-01T12:21:38;100935.63;;;20.32;54.02
71109;BME280;59614;51.012;-1.648;2023-05-01T12:26:36;100941.84;;;20.32;54.51
71109;BME280;59614;51.012;-1.648;2023-05-01T12:29:06;100935.94;;;20.43;53.59
71109;BME280;59614;51.012;-1.648;2023-05-01T12:31:33;100939.91;;;20.36;52.67
71109;BME280;59614;51.012;-1.648;2023-05-01T12:34:04;100937.81;;;20.24;53.50
71109;BME280;59614;51.012;-1.648;2023-05-01T12:36:34;100946.09;;;20.00;52.95
71109;BME280;59614;51.012;-1.648;2023-05-01T12:39:09;100950.03;;;19.53;53.06
71109;BME280;59614;51.012;-1.648;2023-05-01T12:41:43;100946.00;;;19.42;53.82
71109;BME280;59614;51.012;-1.648;2023-05-01T12:44:26;100947.25;;;19.54;53.84
71109;BME280;59614;51.012;-1.648;2023-05-01T12:46:55;100951.00;;;19.50;53.88
71109;BME280;59614;51.012;-1.648;2023-05-01T12:49:23;100948.28;;;19.31;55.40
71109;BME280;59614;51.012;-1.648;2023-05-01T12:51:50;100960.53;;;19.37;56.32
71109;BME280;59614;51.012;-1.648;2023-05-01T12:54:35;100961.97;;;18.82;56.21
71109;BME280;59614;51.012;-1.648;2023-05-01T12:59:35;100973.25;;;18.90;58.31
71109;BME280;59614;51.012;-1.648;2023-05-01T13:02:03;100968.84;;;18.23;58.25
71109;BME280;59614;51.012;-1.648;2023-05-01T13:04:30;100972.50;;;17.96;58.42
71109;BME280;59614;51.012;-1.648;2023-05-01T13:06:56;100974.63;;;17.64;59.47
71109;BME280;59614;51.012;-1.648;2023-05-01T13:09:23;100980.78;;;17.90;60.56
71109;BME280;59614;51.012;-1.648;2023-05-01T13:12:04;100975.28;;;17.93;58.44
71109;BME280;59614;51.012;-1.648;2023-05-01T13:14:36;100984.31;;;18.14;58.75
71109;BME280;59614;51.012;-1.648;2023-05-01T13:17:04;100975.56;;;18.55;58.00
71109;BME280;59614;51.012;-1.648;2023-05-01T13:19:30;100975.41;;;19.23;57.78
71109;BME280;59614;51.012;-1.648;2023-05-01T13:21:56;100972.34;;;20.30;56.12